sensor_id;sensor_type;location;lat;lon;timestamp;P1;durP1;ratioP1;P2;durP2;ratioP2
78224;SDS011;67498;53.650;10.090;2023-03-20T00:00:49;22.40;;;5.40;;
78224;SDS011;67498;53.650;10.090;2023-03-20T00:03:15;16.90;;;6.00;;
78224;SDS011;67498;53.650;10.090;2023-03-20T00:05:40;25.83;;;7.10;;
78224;SDS011;67498;53.650;10.090;2023-03-20T00:08:06;21.53;;;6.23;;
78224;SDS011;67498;53.650;10.090;2023-03-20T00:10:34;21.38;;;6.82;;
78224;SDS011;67498;53.650;10.090;2023-03-20T00:13:00;25.98;;;7.40;;
78224;SDS011;67498;53.650;10.090;2023-03-20T00:15:27;21.87;;;6.43;;
78224;SDS011;67498;53.650;10.090;2023-03-20T00:17:53;21.38;;;6.90;;
78224;SDS011;67498;53.650;10.090;2023-03-20T00:20:19;19.97;;;6.33;;
78224;SDS011;67498;53.650;10.090;2023-03-20T00:22:44;21.77;;;6.57;;
78224;SDS011;67498;53.650;10.090;2023-03-20T00:25:13;24.98;;;7.57;;
78224;SDS011;67498;53.650;10.090;2023-03-20T00:27:40;21.92;;;6.47;;
78224;SDS011;67498;53.650;10.090;2023-03-20T00:30:25;19.27;;;6.50;;
78224;SDS011;67498;53.650;10.090;2023-03-20T00:32:52;26.48;;;6.93;;
78224;SDS011;67498;53.650;10.090;2023-03-20T00:35:21;23.97;;;7.43;;
78224;SDS011;67498;53.650;10.090;2023-03-20T00:37:47;29.30;;;6.82;;
78224;SDS011;67498;53.650;10.090;2023-03-20T00:40:13;22.10;;;7.03;;
78224;SDS011;67498;53.650;10.090;2023-03-20T00:42:38;25.33;;;7.47;;
78224;SDS011;67498;53.650;10.090;2023-03-20T00:45:03;25.00;;;7.20;;
78224;SDS011;67498;53.650;10.090;2023-03-20T00:47:29;25.20;;;7.73;;
78224;SDS011;67498;53.650;10.090;2023-03-20T00:49:54;30.85;;;8.10;;
78224;SDS011;67498;53.650;10.090;2023-03-20T00:52:20;25.60;;;6.97;;
78224;SDS011;67498;53.650;10.090;2023-03-20T00:54:46;29.30;;;7.77;;
78224;SDS011;67498;53.650;10.090;2023-03-20T00:57:12;22.77;;;6.27;;
78224;SDS011;67498;53.650;10.090;2023-03-20T00:59:45;27.80;;;8.27;;
78224;SDS011;67498;53.650;10.090;2023-03-20T01:02:13;24.27;;;7.03;;
78224;SDS011;67498;53.650;10.090;2023-03-20T01:04:40;21.85;;;7.03;;
78224;SDS011;67498;53.650;10.090;2023-03-20T01:07:06;25.75;;;7.38;;
78224;SDS011;67498;53.650;10.090;2023-03-20T01:09:32;27.50;;;7.23;;
78224;SDS011;67498;53.650;10.090;2023-03-20T01:12:00;28.67;;;8.20;;
78224;SDS011;67498;53.650;10.090;2023-03-20T01:14:26;18.70;;;6.30;;
78224;SDS011;67498;53.650;10.090;2023-03-20T01:16:51;25.00;;;6.97;;
78224;SDS011;67498;53.650;10.090;2023-03-20T01:19:16;24.38;;;8.23;;
78224;SDS011;67498;53.650;10.090;2023-03-20T01:21:41;26.42;;;7.45;;
78224;SDS011;67498;53.650;10.090;2023-03-20T01:24:06;24.90;;;6.60;;
78224;SDS011;67498;53.650;10.090;2023-03-20T01:26:35;25.07;;;6.40;;
78224;SDS011;67498;53.650;10.090;2023-03-20T01:29:01;24.08;;;5.47;;
78224;SDS011;67498;53.650;10.090;2023-03-20T01:31:26;20.90;;;6.60;;
78224;SDS011;67498;53.650;10.090;2023-03-20T01:33:51;23.43;;;6.60;;
78224;SDS011;67498;53.650;10.090;2023-03-20T01:36:19;22.37;;;7.23;;
78224;SDS011;67498;53.650;10.090;2023-03-20T01:38:45;24.00;;;7.70;;
78224;SDS011;67498;53.650;10.090;2023-03-20T01:41:11;24.60;;;6.97;;
78224;SDS011;67498;53.650;10.090;2023-03-20T01:43:37;22.88;;;6.93;;
78224;SDS011;67498;53.650;10.090;2023-03-20T01:51:22;28.55;;;6.82;;
78224;SDS011;67498;53.650;10.090;2023-03-20T01:53:58;21.37;;;6.30;;
78224;SDS011;67498;53.650;10.090;2023-03-20T01:56:24;20.38;;;5.88;;
78224;SDS011;67498;53.650;10.090;2023-03-20T01:58:52;26.35;;;6.72;;
78224;SDS011;67498;53.650;10.090;2023-03-20T02:01:20;21.13;;;6.95;;
78224;SDS011;67498;53.650;10.090;2023-03-20T02:03:47;25.02;;;5.45;;
78224;SDS011;67498;53.650;10.090;2023-03-20T02:06:13;14.27;;;4.93;;
78224;SDS011;67498;53.650;10.090;2023-03-20T02:08:50;14.57;;;4.87;;
78224;SDS011;67498;53.650;10.090;2023-03-20T02:11:17;17.00;;;5.10;;
78224;SDS011;67498;53.650;10.090;2023-03-20T02:13:42;16.40;;;4.65;;
78224;SDS011;67498;53.650;10.090;2023-03-20T02:16:12;17.70;;;4.70;;
78224;SDS011;67498;53.650;10.090;2023-03-20T02:18:38;16.57;;;4.80;;
78224;SDS011;67498;53.650;10.090;2023-03-20T02:23:40;13.88;;;4.75;;
78224;SDS011;67498;53.650;10.090;2023-03-20T02:26:16;13.25;;;4.45;;
78224;SDS011;67498;53.650;10.090;2023-03-20T02:36:58;13.15;;;4.47;;
78224;SDS011;67498;53.650;10.090;2023-03-20T02:39:48;12.18;;;4.20;;
78224;SDS011;67498;53.650;10.090;2023-03-20T02:42:18;18.73;;;5.45;;
78224;SDS011;67498;53.650;10.090;2023-03-20T02:44:50;14.83;;;3.77;;
78224;SDS011;67498;53.650;10.090;2023-03-20T02:47:21;13.43;;;4.05;;
78224;SDS011;67498;53.650;10.090;2023-03-20T02:54:59;12.00;;;4.10;;
78224;SDS011;67498;53.650;10.090;2023-03-20T03:00:05;10.48;;;3.67;;
78224;SDS011;67498;53.650;10.090;2023-03-20T03:02:37;13.63;;;3.53;;
78224;SDS011;67498;53.650;10.090;2023-03-20T03:05:09;10.57;;;2.60;;
78224;SDS011;67498;53.650;10.090;2023-03-20T03:07:35;12.77;;;3.20;;
78224;SDS011;67498;53.650;10.090;2023-03-20T03:10:04;6.75;;;1.80;;
78224;SDS011;67498;53.650;10.090;2023-03-20T03:12:32;9.10;;;2.60;;
78224;SDS011;67498;53.650;10.090;2023-03-20T03:14:59;12.60;;;3.17;;
78224;SDS011;67498;53.650;10.090;2023-03-20T03:17:26;10.00;;;2.80;;
78224;SDS011;67498;53.650;10.090;2023-03-20T03:19:54;4.93;;;1.35;;
78224;SDS011;67498;53.650;10.090;2023-03-20T03:22:23;10.85;;;2.25;;
78224;SDS011;67498;53.650;10.090;2023-03-20T03:24:49;6.30;;;2.20;;
78224;SDS011;67498;53.650;10.090;2023-03-20T03:27:17;5.18;;;1.60;;
78224;SDS011;67498;53.650;10.090;2023-03-20T03:29:45;6.57;;;1.57;;
78224;SDS011;67498;53.650;10.090;2023-03-20T03:32:24;6.45;;;1.30;;
78224;SDS011;67498;53.650;10.090;2023-03-20T03:34:50;4.20;;;1.13;;
78224;SDS011;67498;53.650;10.090;2023-03-20T03:37:19;5.53;;;1.27;;
78224;SDS011;67498;53.650;10.090;2023-03-20T03:39:52;5.82;;;1.75;;
78224;SDS011;67498;53.650;10.090;2023-03-20T03:42:29;6.32;;;1.48;;
78224;SDS011;67498;53.650;10.090;2023-03-20T03:44:57;4.20;;;1.07;;
78224;SDS011;67498;53.650;10.090;2023-03-20T03:47:26;5.35;;;1.42;;
78224;SDS011;67498;53.650;10.090;2023-03-20T03:49:57;6.45;;;1.40;;
78224;SDS011;67498;53.650;10.090;2023-03-20T03:52:23;6.65;;;1.85;;
78224;SDS011;67498;53.650;10.090;2023-03-20T03:54:50;5.90;;;1.65;;
78224;SDS011;67498;53.650;10.090;2023-03-20T03:57:18;4.43;;;1.33;;
78224;SDS011;67498;53.650;10.090;2023-03-20T03:59:46;5.35;;;1.40;;
78224;SDS011;67498;53.650;10.090;2023-03-20T04:02:14;5.20;;;1.30;;
78224;SDS011;67498;53.650;10.090;2023-03-20T04:04:44;5.78;;;1.50;;
78224;SDS011;67498;53.650;10.090;2023-03-20T04:07:10;6.15;;;1.83;;
78224;SDS011;67498;53.650;10.090;2023-03-20T04:09:35;6.93;;;1.77;;
78224;SDS011;67498;53.650;10.090;2023-03-20T04:12:00;6.80;;;1.50;;
78224;SDS011;67498;53.650;10.090;2023-03-20T04:14:25;5.00;;;1.53;;
78224;SDS011;67498;53.650;10.090;2023-03-20T04:16:51;4.77;;;1.17;;
78224;SDS011;67498;53.650;10.090;2023-03-20T04:19:16;3.83;;;1.17;;
78224;SDS011;67498;53.650;10.090;2023-03-20T04:21:41;6.00;;;1.60;;
78224;SDS011;67498;53.650;10.090;2023-03-20T04:24:06;3.80;;;1.00;;
78224;SDS011;67498;53.650;10.090;2023-03-20T04:26:32;6.67;;;2.07;;
78224;SDS011;67498;53.650;10.090;2023-03-20T04:28:57;4.50;;;1.30;;
78224;SDS011;67498;53.650;10.090;2023-03-20T04:31:22;5.07;;;1.20;;
78224;SDS011;67498;53.650;10.090;2023-03-20T04:33:47;4.30;;;1.30;;
78224;SDS011;67498;53.650;10.090;2023-03-20T04:36:13;4.33;;;1.47;;
78224;SDS011;67498;53.650;10.090;2023-03-20T04:38:38;5.27;;;1.70;;
78224;SDS011;67498;53.650;10.090;2023-03-20T04:41:03;4.53;;;1.40;;
78224;SDS011;67498;53.650;10.090;2023-03-20T04:43:29;4.93;;;1.23;;
78224;SDS011;67498;53.650;10.090;2023-03-20T04:45:54;4.82;;;1.80;;
78224;SDS011;67498;53.650;10.090;2023-03-20T04:48:19;3.20;;;0.90;;
78224;SDS011;67498;53.650;10.090;2023-03-20T04:50:44;5.33;;;1.00;;
78224;SDS011;67498;53.650;10.090;2023-03-20T04:53:15;4.90;;;1.08;;
78224;SDS011;67498;53.650;10.090;2023-03-20T04:55:40;6.40;;;1.20;;
78224;SDS011;67498;53.650;10.090;2023-03-20T04:58:05;5.32;;;1.20;;
78224;SDS011;67498;53.650;10.090;2023-03-20T05:00:31;4.33;;;1.20;;
78224;SDS011;67498;53.650;10.090;2023-03-20T05:02:56;5.90;;;1.87;;
78224;SDS011;67498;53.650;10.090;2023-03-20T05:05:21;7.17;;;1.80;;
78224;SDS011;67498;53.650;10.090;2023-03-20T05:07:47;4.88;;;1.40;;
78224;SDS011;67498;53.650;10.090;2023-03-20T05:10:12;7.77;;;1.67;;
78224;SDS011;67498;53.650;10.090;2023-03-20T05:12:37;5.17;;;1.83;;
78224;SDS011;67498;53.650;10.090;2023-03-20T05:15:03;11.82;;;4.47;;
78224;SDS011;67498;53.650;10.090;2023-03-20T05:17:28;10.53;;;2.73;;
78224;SDS011;67498;53.650;10.090;2023-03-20T05:19:53;8.37;;;2.80;;
78224;SDS011;67498;53.650;10.090;2023-03-20T05:22:18;6.60;;;2.00;;
78224;SDS011;67498;53.650;10.090;2023-03-20T05:24:43;7.13;;;2.30;;
78224;SDS011;67498;53.650;10.090;2023-03-20T05:27:09;7.47;;;1.92;;
78224;SDS011;67498;53.650;10.090;2023-03-20T05:29:34;8.87;;;1.97;;
78224;SDS011;67498;53.650;10.090;2023-03-20T05:32:00;5.53;;;1.73;;
78224;SDS011;67498;53.650;10.090;2023-03-20T05:34:25;6.83;;;1.97;;
78224;SDS011;67498;53.650;10.090;2023-03-20T05:36:51;5.57;;;1.65;;
78224;SDS011;67498;53.650;10.090;2023-03-20T05:39:16;6.23;;;1.30;;
78224;SDS011;67498;53.650;10.090;2023-03-20T05:41:42;5.80;;;2.10;;
78224;SDS011;67498;53.650;10.090;2023-03-20T05:44:07;6.43;;;2.10;;
78224;SDS011;67498;53.650;10.090;2023-03-20T05:46:32;6.33;;;1.50;;
78224;SDS011;67498;53.650;10.090;2023-03-20T05:48:57;8.93;;;1.93;;
78224;SDS011;67498;53.650;10.090;2023-03-20T05:51:22;8.43;;;1.83;;
78224;SDS011;67498;53.650;10.090;2023-03-20T05:53:47;5.97;;;1.90;;
78224;SDS011;67498;53.650;10.090;2023-03-20T05:56:13;7.50;;;1.83;;
78224;SDS011;67498;53.650;10.090;2023-03-20T05:58:38;5.40;;;1.98;;
78224;SDS011;67498;53.650;10.090;2023-03-20T06:01:03;7.87;;;1.80;;
78224;SDS011;67498;53.650;10.090;2023-03-20T06:03:28;6.27;;;1.53;;
78224;SDS011;67498;53.650;10.090;2023-03-20T06:05:53;8.90;;;1.67;;
78224;SDS011;67498;53.650;10.090;2023-03-20T06:08:19;6.80;;;2.13;;
78224;SDS011;67498;53.650;10.090;2023-03-20T06:10:44;5.73;;;1.67;;
78224;SDS011;67498;53.650;10.090;2023-03-20T06:13:09;5.77;;;1.83;;
78224;SDS011;67498;53.650;10.090;2023-03-20T06:15:35;5.73;;;1.83;;
78224;SDS011;67498;53.650;10.090;2023-03-20T06:18:00;10.00;;;2.53;;
78224;SDS011;67498;53.650;10.090;2023-03-20T06:20:25;6.90;;;1.93;;
78224;SDS011;67498;53.650;10.090;2023-03-20T06:22:50;5.35;;;1.80;;
78224;SDS011;67498;53.650;10.090;2023-03-20T06:25:16;6.83;;;1.90;;
78224;SDS011;67498;53.650;10.090;2023-03-20T06:27:41;4.47;;;1.50;;
78224;SDS011;67498;53.650;10.090;2023-03-20T06:30:07;9.53;;;2.93;;
78224;SDS011;67498;53.650;10.090;2023-03-20T06:32:32;5.77;;;1.83;;
78224;SDS011;67498;53.650;10.090;2023-03-20T06:34:57;4.87;;;1.70;;
78224;SDS011;67498;53.650;10.090;2023-03-20T06:37:23;5.20;;;1.50;;
78224;SDS011;67498;53.650;10.090;2023-03-20T06:39:48;7.03;;;2.70;;
78224;SDS011;67498;53.650;10.090;2023-03-20T06:42:13;11.00;;;2.60;;
78224;SDS011;67498;53.650;10.090;2023-03-20T06:44:39;13.00;;;2.20;;
78224;SDS011;67498;53.650;10.090;2023-03-20T06:47:04;5.43;;;1.73;;
78224;SDS011;67498;53.650;10.090;2023-03-20T06:49:29;6.87;;;2.17;;
78224;SDS011;67498;53.650;10.090;2023-03-20T06:51:55;7.80;;;1.80;;
78224;SDS011;67498;53.650;10.090;2023-03-20T06:54:20;6.43;;;1.75;;
78224;SDS011;67498;53.650;10.090;2023-03-20T06:56:45;3.53;;;1.40;;
78224;SDS011;67498;53.650;10.090;2023-03-20T06:59:11;6.27;;;1.90;;
78224;SDS011;67498;53.650;10.090;2023-03-20T07:01:36;5.47;;;2.13;;
78224;SDS011;67498;53.650;10.090;2023-03-20T07:04:01;6.10;;;1.90;;
78224;SDS011;67498;53.650;10.090;2023-03-20T07:06:27;7.40;;;2.33;;
78224;SDS011;67498;53.650;10.090;2023-03-20T07:08:52;9.33;;;2.17;;
78224;SDS011;67498;53.650;10.090;2023-03-20T07:11:17;14.23;;;1.67;;
78224;SDS011;67498;53.650;10.090;2023-03-20T07:13:42;8.83;;;2.70;;
78224;SDS011;67498;53.650;10.090;2023-03-20T07:16:08;6.10;;;2.23;;
78224;SDS011;67498;53.650;10.090;2023-03-20T07:18:33;4.70;;;1.40;;
78224;SDS011;67498;53.650;10.090;2023-03-20T07:20:59;7.00;;;1.45;;
78224;SDS011;67498;53.650;10.090;2023-03-20T07:23:26;9.77;;;1.73;;
78224;SDS011;67498;53.650;10.090;2023-03-20T07:25:51;8.00;;;2.20;;
78224;SDS011;67498;53.650;10.090;2023-03-20T07:28:16;3.50;;;0.97;;
78224;SDS011;67498;53.650;10.090;2023-03-20T07:30:42;7.00;;;1.97;;
78224;SDS011;67498;53.650;10.090;2023-03-20T07:33:07;7.72;;;1.73;;
78224;SDS011;67498;53.650;10.090;2023-03-20T07:35:32;4.97;;;1.40;;
78224;SDS011;67498;53.650;10.090;2023-03-20T07:37:57;4.90;;;1.63;;
78224;SDS011;67498;53.650;10.090;2023-03-20T07:40:23;4.63;;;1.20;;
78224;SDS011;67498;53.650;10.090;2023-03-20T07:42:48;7.33;;;2.20;;
78224;SDS011;67498;53.650;10.090;2023-03-20T07:45:13;6.63;;;1.40;;
78224;SDS011;67498;53.650;10.090;2023-03-20T07:47:40;6.55;;;1.88;;
78224;SDS011;67498;53.650;10.090;2023-03-20T07:50:06;9.07;;;1.73;;
78224;SDS011;67498;53.650;10.090;2023-03-20T07:52:31;4.80;;;1.17;;
78224;SDS011;67498;53.650;10.090;2023-03-20T07:54:56;5.93;;;1.70;;
78224;SDS011;67498;53.650;10.090;2023-03-20T07:57:21;8.50;;;1.60;;
78224;SDS011;67498;53.650;10.090;2023-03-20T07:59:47;5.28;;;1.13;;
78224;SDS011;67498;53.650;10.090;2023-03-20T08:02:15;5.23;;;1.40;;
78224;SDS011;67498;53.650;10.090;2023-03-20T08:04:41;6.77;;;1.23;;
78224;SDS011;67498;53.650;10.090;2023-03-20T08:07:06;5.32;;;1.85;;
78224;SDS011;67498;53.650;10.090;2023-03-20T08:09:32;10.00;;;1.80;;
78224;SDS011;67498;53.650;10.090;2023-03-20T08:11:57;11.23;;;1.57;;
78224;SDS011;67498;53.650;10.090;2023-03-20T08:14:22;7.67;;;1.50;;
78224;SDS011;67498;53.650;10.090;2023-03-20T08:16:47;5.73;;;1.37;;
78224;SDS011;67498;53.650;10.090;2023-03-20T08:19:13;5.07;;;1.90;;
78224;SDS011;67498;53.650;10.090;2023-03-20T08:21:38;8.57;;;1.97;;
78224;SDS011;67498;53.650;10.090;2023-03-20T08:24:04;11.70;;;1.45;;
78224;SDS011;67498;53.650;10.090;2023-03-20T08:26:30;4.40;;;1.20;;
78224;SDS011;67498;53.650;10.090;2023-03-20T08:28:55;4.40;;;1.40;;
78224;SDS011;67498;53.650;10.090;2023-03-20T08:31:21;5.53;;;1.80;;
78224;SDS011;67498;53.650;10.090;2023-03-20T08:33:47;10.30;;;1.73;;
78224;SDS011;67498;53.650;10.090;2023-03-20T08:36:12;5.10;;;1.73;;
78224;SDS011;67498;53.650;10.090;2023-03-20T08:38:39;6.22;;;1.38;;
78224;SDS011;67498;53.650;10.090;2023-03-20T08:41:05;5.90;;;1.20;;
78224;SDS011;67498;53.650;10.090;2023-03-20T08:43:30;4.07;;;0.93;;
78224;SDS011;67498;53.650;10.090;2023-03-20T08:45:55;8.20;;;1.30;;
78224;SDS011;67498;53.650;10.090;2023-03-20T08:48:20;12.03;;;1.50;;
78224;SDS011;67498;53.650;10.090;2023-03-20T08:50:45;4.17;;;1.10;;
78224;SDS011;67498;53.650;10.090;2023-03-20T08:53:10;6.63;;;1.50;;
78224;SDS011;67498;53.650;10.090;2023-03-20T08:55:36;7.13;;;1.20;;
78224;SDS011;67498;53.650;10.090;2023-03-20T08:58:01;4.18;;;1.00;;
78224;SDS011;67498;53.650;10.090;2023-03-20T09:00:27;4.83;;;0.90;;
78224;SDS011;67498;53.650;10.090;2023-03-20T09:02:52;4.07;;;1.03;;
78224;SDS011;67498;53.650;10.090;2023-03-20T09:05:17;4.90;;;1.75;;
78224;SDS011;67498;53.650;10.090;2023-03-20T09:07:42;2.73;;;0.90;;
78224;SDS011;67498;53.650;10.090;2023-03-20T09:10:08;7.30;;;1.40;;
78224;SDS011;67498;53.650;10.090;2023-03-20T09:12:34;6.05;;;1.23;;
78224;SDS011;67498;53.650;10.090;2023-03-20T09:14:59;5.20;;;1.40;;
78224;SDS011;67498;53.650;10.090;2023-03-20T09:17:25;6.73;;;1.37;;
78224;SDS011;67498;53.650;10.090;2023-03-20T09:19:51;7.03;;;1.55;;
78224;SDS011;67498;53.650;10.090;2023-03-20T09:22:16;5.03;;;1.55;;
78224;SDS011;67498;53.650;10.090;2023-03-20T09:24:44;4.22;;;1.17;;
78224;SDS011;67498;53.650;10.090;2023-03-20T09:27:10;4.80;;;1.20;;
78224;SDS011;67498;53.650;10.090;2023-03-20T09:29:38;5.20;;;1.48;;
78224;SDS011;67498;53.650;10.090;2023-03-20T09:32:03;6.13;;;1.57;;
78224;SDS011;67498;53.650;10.090;2023-03-20T09:34:28;6.67;;;1.50;;
78224;SDS011;67498;53.650;10.090;2023-03-20T09:36:53;4.23;;;1.30;;
78224;SDS011;67498;53.650;10.090;2023-03-20T09:39:18;8.13;;;1.30;;
78224;SDS011;67498;53.650;10.090;2023-03-20T09:41:47;4.10;;;1.17;;
78224;SDS011;67498;53.650;10.090;2023-03-20T09:46:45;8.45;;;1.40;;
78224;SDS011;67498;53.650;10.090;2023-03-20T09:54:06;4.73;;;1.20;;
78224;SDS011;67498;53.650;10.090;2023-03-20T09:56:33;5.25;;;1.27;;
78224;SDS011;67498;53.650;10.090;2023-03-20T09:59:00;4.67;;;1.27;;
78224;SDS011;67498;53.650;10.090;2023-03-20T10:01:29;5.22;;;1.27;;
78224;SDS011;67498;53.650;10.090;2023-03-20T10:03:55;7.50;;;1.60;;
78224;SDS011;67498;53.650;10.090;2023-03-20T10:06:21;6.50;;;1.50;;
78224;SDS011;67498;53.650;10.090;2023-03-20T10:08:47;11.20;;;1.43;;
78224;SDS011;67498;53.650;10.090;2023-03-20T10:19:22;7.47;;;1.25;;
78224;SDS011;67498;53.650;10.090;2023-03-20T10:21:49;4.18;;;1.25;;
78224;SDS011;67498;53.650;10.090;2023-03-20T10:24:31;5.00;;;1.67;;
78224;SDS011;67498;53.650;10.090;2023-03-20T10:27:00;9.07;;;2.38;;
78224;SDS011;67498;53.650;10.090;2023-03-20T10:32:19;6.63;;;1.92;;
78224;SDS011;67498;53.650;10.090;2023-03-20T10:34:54;4.03;;;1.08;;
78224;SDS011;67498;53.650;10.090;2023-03-20T10:37:37;6.33;;;1.80;;
78224;SDS011;67498;53.650;10.090;2023-03-20T10:40:16;7.95;;;1.77;;
78224;SDS011;67498;53.650;10.090;2023-03-20T10:42:44;8.73;;;1.73;;
78224;SDS011;67498;53.650;10.090;2023-03-20T10:47:42;6.45;;;1.90;;
78224;SDS011;67498;53.650;10.090;2023-03-20T10:50:18;8.83;;;2.20;;
78224;SDS011;67498;53.650;10.090;2023-03-20T10:52:44;6.75;;;2.28;;
78224;SDS011;67498;53.650;10.090;2023-03-20T10:55:12;8.43;;;2.38;;
78224;SDS011;67498;53.650;10.090;2023-03-20T10:57:39;7.80;;;1.73;;
78224;SDS011;67498;53.650;10.090;2023-03-20T11:00:11;5.93;;;2.05;;
78224;SDS011;67498;53.650;10.090;2023-03-20T11:02:37;7.47;;;1.70;;
78224;SDS011;67498;53.650;10.090;2023-03-20T11:07:48;8.10;;;2.20;;
78224;SDS011;67498;53.650;10.090;2023-03-20T11:10:14;4.05;;;1.52;;
78224;SDS011;67498;53.650;10.090;2023-03-20T11:12:41;5.95;;;1.73;;
78224;SDS011;67498;53.650;10.090;2023-03-20T11:15:14;4.53;;;1.77;;
78224;SDS011;67498;53.650;10.090;2023-03-20T11:17:40;10.17;;;2.23;;
78224;SDS011;67498;53.650;10.090;2023-03-20T11:20:05;4.97;;;1.83;;
78224;SDS011;67498;53.650;10.090;2023-03-20T11:22:31;5.78;;;1.95;;
78224;SDS011;67498;53.650;10.090;2023-03-20T11:24:57;8.63;;;1.57;;
78224;SDS011;67498;53.650;10.090;2023-03-20T11:27:26;5.72;;;1.90;;
78224;SDS011;67498;53.650;10.090;2023-03-20T11:29:52;5.90;;;1.77;;
78224;SDS011;67498;53.650;10.090;2023-03-20T11:32:31;5.65;;;1.63;;
78224;SDS011;67498;53.650;10.090;2023-03-20T11:35:15;8.43;;;1.70;;
78224;SDS011;67498;53.650;10.090;2023-03-20T11:37:43;9.40;;;2.40;;
78224;SDS011;67498;53.650;10.090;2023-03-20T11:42:36;8.37;;;1.57;;
78224;SDS011;67498;53.650;10.090;2023-03-20T11:45:03;8.17;;;2.13;;
78224;SDS011;67498;53.650;10.090;2023-03-20T11:47:30;6.90;;;2.45;;
78224;SDS011;67498;53.650;10.090;2023-03-20T11:49:57;7.68;;;1.70;;
78224;SDS011;67498;53.650;10.090;2023-03-20T11:52:44;8.23;;;1.90;;
78224;SDS011;67498;53.650;10.090;2023-03-20T11:55:22;11.20;;;2.20;;
78224;SDS011;67498;53.650;10.090;2023-03-20T11:57:48;7.53;;;1.40;;
78224;SDS011;67498;53.650;10.090;2023-03-20T12:00:20;6.03;;;1.77;;
78224;SDS011;67498;53.650;10.090;2023-03-20T12:02:45;5.50;;;2.03;;
78224;SDS011;67498;53.650;10.090;2023-03-20T12:05:18;6.83;;;1.83;;
78224;SDS011;67498;53.650;10.090;2023-03-20T12:07:45;6.97;;;2.00;;
78224;SDS011;67498;53.650;10.090;2023-03-20T12:10:11;8.93;;;1.95;;
78224;SDS011;67498;53.650;10.090;2023-03-20T12:12:46;9.90;;;1.77;;
78224;SDS011;67498;53.650;10.090;2023-03-20T12:15:23;11.43;;;2.22;;
78224;SDS011;67498;53.650;10.090;2023-03-20T12:23:24;25.92;;;2.03;;
78224;SDS011;67498;53.650;10.090;2023-03-20T12:26:04;9.02;;;2.10;;
78224;SDS011;67498;53.650;10.090;2023-03-20T12:36:41;6.35;;;1.58;;
78224;SDS011;67498;53.650;10.090;2023-03-20T12:39:11;6.22;;;1.60;;
78224;SDS011;67498;53.650;10.090;2023-03-20T12:46:33;7.32;;;1.60;;
78224;SDS011;67498;53.650;10.090;2023-03-20T12:51:46;6.22;;;1.90;;
78224;SDS011;67498;53.650;10.090;2023-03-20T12:54:18;8.33;;;1.80;;
78224;SDS011;67498;53.650;10.090;2023-03-20T12:59:18;4.90;;;1.53;;
78224;SDS011;67498;53.650;10.090;2023-03-20T13:01:54;5.07;;;1.45;;
78224;SDS011;67498;53.650;10.090;2023-03-20T13:11:43;8.17;;;1.73;;
78224;SDS011;67498;53.650;10.090;2023-03-20T13:14:30;8.57;;;1.50;;
78224;SDS011;67498;53.650;10.090;2023-03-20T13:17:10;7.05;;;2.22;;
78224;SDS011;67498;53.650;10.090;2023-03-20T13:22:05;5.03;;;1.42;;
78224;SDS011;67498;53.650;10.090;2023-03-20T13:24:37;5.07;;;1.40;;
78224;SDS011;67498;53.650;10.090;2023-03-20T13:32:16;7.00;;;1.42;;
78224;SDS011;67498;53.650;10.090;2023-03-20T13:37:29;4.65;;;1.45;;
78224;SDS011;67498;53.650;10.090;2023-03-20T13:42:27;5.15;;;1.50;;
78224;SDS011;67498;53.650;10.090;2023-03-20T13:44:54;7.22;;;1.52;;
78224;SDS011;67498;53.650;10.090;2023-03-20T13:47:22;6.53;;;2.08;;
78224;SDS011;67498;53.650;10.090;2023-03-20T13:49:52;4.35;;;1.17;;
78224;SDS011;67498;53.650;10.090;2023-03-20T13:52:22;6.53;;;1.85;;
78224;SDS011;67498;53.650;10.090;2023-03-20T14:04:43;6.22;;;2.03;;
78224;SDS011;67498;53.650;10.090;2023-03-20T14:07:29;4.37;;;1.27;;
78224;SDS011;67498;53.650;10.090;2023-03-20T14:09:55;10.15;;;1.67;;
78224;SDS011;67498;53.650;10.090;2023-03-20T14:12:22;5.07;;;1.58;;
78224;SDS011;67498;53.650;10.090;2023-03-20T14:14:52;5.63;;;1.50;;
78224;SDS011;67498;53.650;10.090;2023-03-20T14:17:21;7.53;;;1.40;;
78224;SDS011;67498;53.650;10.090;2023-03-20T14:19:48;11.60;;;1.70;;
78224;SDS011;67498;53.650;10.090;2023-03-20T14:22:16;6.72;;;1.77;;
78224;SDS011;67498;53.650;10.090;2023-03-20T14:24:44;11.88;;;1.60;;
78224;SDS011;67498;53.650;10.090;2023-03-20T14:27:15;6.60;;;1.60;;
78224;SDS011;67498;53.650;10.090;2023-03-20T14:29:42;6.28;;;1.50;;
78224;SDS011;67498;53.650;10.090;2023-03-20T14:42:53;5.80;;;1.60;;
78224;SDS011;67498;53.650;10.090;2023-03-20T14:50:37;7.07;;;2.13;;
78224;SDS011;67498;53.650;10.090;2023-03-20T14:53:08;4.28;;;1.38;;
78224;SDS011;67498;53.650;10.090;2023-03-20T15:01:04;13.65;;;1.45;;
78224;SDS011;67498;53.650;10.090;2023-03-20T15:03:29;5.83;;;2.27;;
78224;SDS011;67498;53.650;10.090;2023-03-20T15:05:56;5.30;;;1.70;;
78224;SDS011;67498;53.650;10.090;2023-03-20T15:08:23;7.40;;;1.88;;
78224;SDS011;67498;53.650;10.090;2023-03-20T15:10:53;6.40;;;1.80;;
78224;SDS011;67498;53.650;10.090;2023-03-20T15:13:19;9.47;;;1.47;;
78224;SDS011;67498;53.650;10.090;2023-03-20T15:15:55;5.50;;;1.45;;
78224;SDS011;67498;53.650;10.090;2023-03-20T15:18:21;7.38;;;1.90;;
78224;SDS011;67498;53.650;10.090;2023-03-20T15:20:47;5.70;;;1.63;;
78224;SDS011;67498;53.650;10.090;2023-03-20T15:23:12;4.93;;;1.47;;
78224;SDS011;67498;53.650;10.090;2023-03-20T15:25:39;5.43;;;1.73;;
78224;SDS011;67498;53.650;10.090;2023-03-20T15:28:10;6.18;;;1.90;;
78224;SDS011;67498;53.650;10.090;2023-03-20T15:30:37;10.80;;;2.03;;
78224;SDS011;67498;53.650;10.090;2023-03-20T15:33:03;7.10;;;2.28;;
78224;SDS011;67498;53.650;10.090;2023-03-20T15:35:28;8.43;;;1.60;;
78224;SDS011;67498;53.650;10.090;2023-03-20T15:37:53;7.10;;;2.03;;
78224;SDS011;67498;53.650;10.090;2023-03-20T15:40:39;5.55;;;1.80;;
78224;SDS011;67498;53.650;10.090;2023-03-20T15:43:20;4.10;;;1.30;;
78224;SDS011;67498;53.650;10.090;2023-03-20T15:45:46;7.20;;;2.00;;
78224;SDS011;67498;53.650;10.090;2023-03-20T15:48:16;7.43;;;1.70;;
78224;SDS011;67498;53.650;10.090;2023-03-20T15:50:43;6.43;;;2.10;;
78224;SDS011;67498;53.650;10.090;2023-03-20T15:53:12;9.95;;;1.70;;
78224;SDS011;67498;53.650;10.090;2023-03-20T15:55:39;5.17;;;1.37;;
78224;SDS011;67498;53.650;10.090;2023-03-20T15:58:04;5.20;;;1.75;;
78224;SDS011;67498;53.650;10.090;2023-03-20T16:00:38;7.57;;;1.67;;
78224;SDS011;67498;53.650;10.090;2023-03-20T16:03:06;7.40;;;2.10;;
78224;SDS011;67498;53.650;10.090;2023-03-20T16:05:32;5.53;;;2.03;;
78224;SDS011;67498;53.650;10.090;2023-03-20T16:08:10;8.02;;;2.00;;
78224;SDS011;67498;53.650;10.090;2023-03-20T16:10:35;8.10;;;2.15;;
78224;SDS011;67498;53.650;10.090;2023-03-20T16:13:02;4.97;;;1.88;;
78224;SDS011;67498;53.650;10.090;2023-03-20T16:15:28;8.93;;;2.63;;
78224;SDS011;67498;53.650;10.090;2023-03-20T16:17:56;8.13;;;1.92;;
78224;SDS011;67498;53.650;10.090;2023-03-20T16:20:22;6.72;;;1.92;;
78224;SDS011;67498;53.650;10.090;2023-03-20T16:22:48;8.88;;;1.92;;
78224;SDS011;67498;53.650;10.090;2023-03-20T16:25:15;9.63;;;2.47;;
78224;SDS011;67498;53.650;10.090;2023-03-20T16:27:41;6.70;;;2.13;;
78224;SDS011;67498;53.650;10.090;2023-03-20T16:30:08;6.57;;;2.10;;
78224;SDS011;67498;53.650;10.090;2023-03-20T16:32:38;9.75;;;2.63;;
78224;SDS011;67498;53.650;10.090;2023-03-20T16:35:06;6.67;;;2.33;;
78224;SDS011;67498;53.650;10.090;2023-03-20T16:37:42;5.95;;;2.20;;